createdAt,value
2019-03-28T00:01:10.800Z,101957.36
2019-03-28T00:06:15.912Z,101955.70
2019-03-28T00:11:21.076Z,101956.41
2019-03-28T00:16:26.361Z,101959.00
2019-03-28T00:21:32.317Z,101956.36
2019-03-28T00:26:37.057Z,101948.55
2019-03-28T00:31:41.902Z,101956.42
2019-03-28T00:36:48.284Z,101948.19
2019-03-28T00:41:52.877Z,101958.44
2019-03-28T00:46:57.879Z,101943.61
2019-03-28T00:52:02.487Z,101944.43
2019-03-28T00:57:07.209Z,101945.14
2019-03-28T01:02:11.793Z,101940.22
2019-03-28T01:07:16.625Z,101936.33
2019-03-28T01:12:21.321Z,101936.88
2019-03-28T01:17:26.099Z,101931.16
2019-03-28T01:22:31.117Z,101934.09
2019-03-28T01:27:36.045Z,101933.27
2019-03-28T01:32:40.914Z,101926.89
2019-03-28T01:37:45.852Z,101918.69
2019-03-28T01:42:50.805Z,101928.66
2019-03-28T01:47:55.497Z,101927.63
2019-03-28T01:53:00.333Z,101925.71
2019-03-28T01:58:05.299Z,101919.11
2019-03-28T02:03:10.227Z,101922.22
2019-03-28T02:08:15.318Z,101920.42
2019-03-28T02:13:19.975Z,101913.61
2019-03-28T02:18:24.535Z,101915.89
2019-03-28T02:23:29.118Z,101911.86
2019-03-28T02:28:33.678Z,101908.55
2019-03-28T02:33:38.384Z,101910.27
2019-03-28T02:38:43.629Z,101897.78
2019-03-28T02:43:48.480Z,101892.13
2019-03-28T02:48:53.912Z,101899.58
2019-03-28T02:53:58.974Z,101891.22
2019-03-28T02:59:03.725Z,101885.27
2019-03-28T03:04:08.339Z,101894.59
2019-03-28T03:09:13.070Z,101890.20
2019-03-28T03:14:17.724Z,101886.16
2019-03-28T03:19:22.796Z,101887.53
2019-03-28T03:24:27.676Z,101873.03
2019-03-28T03:29:35.194Z,101873.19
2019-03-28T03:34:41.004Z,101870.06
2019-03-28T03:39:45.962Z,101867.13
2019-03-28T03:44:50.953Z,101873.22
2019-03-28T03:49:56.485Z,101860.00
2019-03-28T03:55:01.586Z,101866.22
2019-03-28T04:00:07.434Z,101863.08
2019-03-28T04:05:12.722Z,101859.27
2019-03-28T04:10:17.700Z,101849.92
2019-03-28T04:15:22.529Z,101858.00
2019-03-28T04:20:27.320Z,101869.02
2019-03-28T04:25:32.086Z,101875.02
2019-03-28T04:30:36.910Z,101864.16
2019-03-28T04:35:41.701Z,101864.99
2019-03-28T04:40:47.183Z,101867.59
2019-03-28T04:45:51.967Z,101864.08
2019-03-28T04:50:56.723Z,101861.53
2019-03-28T04:56:01.506Z,101867.61
2019-03-28T05:01:06.338Z,101874.11
2019-03-28T05:06:10.982Z,101860.05
2019-03-28T05:11:15.823Z,101874.08
2019-03-28T05:16:20.621Z,101869.16
2019-03-28T05:21:25.515Z,101871.39
2019-03-28T05:26:30.256Z,101886.44
2019-03-28T05:31:35.213Z,101889.10
2019-03-28T05:36:39.938Z,101879.08
2019-03-28T05:41:44.858Z,101887.92
2019-03-28T05:46:49.633Z,101890.22
2019-03-28T05:51:54.409Z,101886.33
2019-03-28T05:56:59.543Z,101889.80
2019-03-28T06:02:04.368Z,101893.31
2019-03-28T06:07:09.697Z,101898.99
2019-03-28T06:12:15.183Z,101914.28
2019-03-28T06:17:19.878Z,101910.31
2019-03-28T06:22:25.088Z,101919.58
2019-03-28T06:27:29.826Z,101927.45
2019-03-28T06:32:42.944Z,101934.30
2019-03-28T06:37:40.948Z,101945.02
2019-03-28T06:42:46.038Z,101942.80
2019-03-28T06:47:50.938Z,101955.83
2019-03-28T06:52:55.899Z,101955.45
2019-03-28T06:58:00.633Z,101956.86
2019-03-28T07:03:05.768Z,101967.58
2019-03-28T07:08:10.581Z,101984.62
2019-03-28T07:13:15.578Z,101985.17
2019-03-28T07:18:20.343Z,101983.61
2019-03-28T07:23:25.065Z,101996.72
2019-03-28T07:28:30.058Z,102003.01
2019-03-28T07:33:34.713Z,101994.13
2019-03-28T07:38:40.418Z,101998.56
2019-03-28T07:43:49.033Z,101999.50
2019-03-28T07:48:53.864Z,102005.42
2019-03-28T07:53:58.582Z,102002.34
2019-03-28T07:59:05.878Z,101997.35
2019-03-28T08:04:14.690Z,102006.94
2019-03-28T08:09:21.323Z,101998.53
2019-03-28T08:14:26.073Z,101997.58
2019-03-28T08:19:30.785Z,101999.52
2019-03-28T08:24:37.177Z,101995.97
2019-03-28T08:29:42.429Z,101997.85
2019-03-28T08:34:48.612Z,101992.98
2019-03-28T08:39:53.866Z,101990.15
2019-03-28T08:44:58.860Z,101987.61
2019-03-28T08:50:04.150Z,101982.42
2019-03-28T08:55:10.118Z,101974.14
2019-03-28T09:00:16.715Z,101970.41
2019-03-28T09:05:22.537Z,101958.41
2019-03-28T09:10:27.378Z,101970.72
2019-03-28T09:15:43.569Z,101971.73
2019-03-28T09:20:41.883Z,101978.76
2019-03-28T09:25:46.740Z,101965.57
2019-03-28T09:30:51.450Z,101966.73
2019-03-28T09:35:56.168Z,101954.19
2019-03-28T09:41:00.954Z,101952.45
2019-03-28T09:46:06.395Z,101952.17
2019-03-28T09:51:11.174Z,101963.43
2019-03-28T09:56:16.313Z,101958.84
2019-03-28T10:01:21.009Z,101961.23
2019-03-28T10:06:28.833Z,101958.84
2019-03-28T10:11:33.987Z,101972.32
2019-03-28T10:16:40.306Z,101962.08
2019-03-28T10:21:45.257Z,101958.72
2019-03-28T10:26:52.413Z,101956.47
2019-03-28T10:31:57.407Z,101950.75
2019-03-28T10:37:02.509Z,101950.23
2019-03-28T10:42:07.345Z,101933.56
2019-03-28T10:47:12.405Z,101933.23
2019-03-28T10:52:18.513Z,101937.75
2019-03-28T10:57:29.969Z,101936.36
2019-03-28T11:02:30.669Z,101941.89
2019-03-28T11:07:35.468Z,101934.82
2019-03-28T11:12:40.207Z,101939.88
2019-03-28T11:17:47.856Z,101936.70
2019-03-28T11:22:52.870Z,101938.20
2019-03-28T11:27:57.927Z,101926.17
2019-03-28T11:33:06.305Z,101912.41
2019-03-28T11:38:09.817Z,101910.28
2019-03-28T11:43:15.557Z,101899.27
2019-03-28T11:48:20.874Z,101903.85
2019-03-28T11:53:25.887Z,101896.20
2019-03-28T11:58:32.889Z,101890.59
2019-03-28T12:03:37.758Z,101881.77
2019-03-28T12:08:42.547Z,101889.25
2019-03-28T12:13:47.337Z,101887.20
2019-03-28T12:18:52.447Z,101879.74
2019-03-28T12:23:57.245Z,101875.86
2019-03-28T12:29:02.008Z,101866.50
2019-03-28T12:34:06.748Z,101866.84
2019-03-28T12:39:15.365Z,101860.91
2019-03-28T12:44:18.814Z,101855.34
2019-03-28T12:49:23.747Z,101849.75
2019-03-28T12:54:29.050Z,101850.77
2019-03-28T12:59:33.908Z,101842.41
2019-03-28T13:04:38.768Z,101830.02
2019-03-28T13:09:43.697Z,101839.83
2019-03-28T13:14:49.649Z,101819.22
2019-03-28T13:19:54.677Z,101825.27
2019-03-28T13:24:59.574Z,101824.29
2019-03-28T13:30:06.348Z,101816.78
2019-03-28T13:35:11.727Z,101819.08
2019-03-28T13:40:16.756Z,101810.89
2019-03-28T13:45:21.867Z,101803.20
2019-03-28T13:50:27.718Z,101803.72
2019-03-28T13:55:32.627Z,101796.96
2019-03-28T14:00:37.679Z,101793.13
2019-03-28T14:05:42.645Z,101789.36
2019-03-28T14:10:47.707Z,101780.45
2019-03-28T14:15:52.468Z,101769.91
2019-03-28T14:20:57.947Z,101765.82
2019-03-28T14:26:02.888Z,101757.70
2019-03-28T14:31:07.865Z,101758.79
2019-03-28T14:36:12.991Z,101746.84
2019-03-28T14:41:18.105Z,101759.89
2019-03-28T14:46:22.921Z,101756.39
2019-03-28T14:51:28.022Z,101734.98
2019-03-28T14:56:33.413Z,101743.82
2019-03-28T15:01:38.427Z,101733.48
2019-03-28T15:06:43.148Z,101720.69
2019-03-28T15:11:50.565Z,101722.45
2019-03-28T15:16:58.009Z,101713.88
2019-03-28T15:22:03.146Z,101716.66
2019-03-28T15:27:07.808Z,101642.05
2019-03-28T15:32:13.787Z,101695.78
2019-03-28T15:37:18.538Z,101705.18
2019-03-28T15:42:23.387Z,101694.64
2019-03-28T15:47:28.848Z,101681.75
2019-03-28T15:52:34.527Z,101677.63
2019-03-28T15:57:40.766Z,101665.28
2019-03-28T16:02:45.747Z,101665.70
2019-03-28T16:07:50.845Z,101660.16
2019-03-28T16:12:55.655Z,101653.59
2019-03-28T16:18:00.227Z,101657.67
2019-03-28T16:23:05.679Z,101655.00
2019-03-28T16:28:10.388Z,101647.13
2019-03-28T16:33:18.409Z,101644.41
2019-03-28T16:38:23.165Z,101645.05
2019-03-28T16:43:27.950Z,101642.48
2019-03-28T16:48:32.667Z,101642.66
2019-03-28T16:53:37.617Z,101639.83
2019-03-28T16:58:42.306Z,101631.85
2019-03-28T17:03:47.067Z,101635.73
2019-03-28T17:08:53.367Z,101637.06
2019-03-28T17:13:58.007Z,101628.55
2019-03-28T17:19:02.867Z,101630.92
2019-03-28T17:24:07.768Z,101623.23
2019-03-28T17:34:34.742Z,101634.14
2019-03-28T17:39:31.427Z,101633.66
2019-03-28T17:44:36.865Z,101623.45
2019-03-28T17:49:42.817Z,101622.86
2019-03-28T17:54:48.688Z,101620.71
2019-03-28T17:59:53.998Z,101624.01
2019-03-28T18:05:09.345Z,101610.34
2019-03-28T18:10:08.859Z,101609.86
2019-03-28T18:15:13.768Z,101606.87
2019-03-28T18:20:18.768Z,101614.07
2019-03-28T18:25:23.586Z,101628.41
2019-03-28T18:30:28.657Z,101634.33
2019-03-28T18:35:34.634Z,101626.66
2019-03-28T18:40:39.827Z,101627.30
2019-03-28T18:45:44.787Z,101626.23
2019-03-28T18:50:49.627Z,101628.50
2019-03-28T18:55:54.366Z,101629.91
2019-03-28T19:00:58.987Z,101637.84
2019-03-28T19:06:03.959Z,101630.00
2019-03-28T19:11:08.729Z,101626.29
2019-03-28T19:16:13.587Z,101636.75
2019-03-28T19:21:18.473Z,101638.13
2019-03-28T19:26:23.867Z,101633.73
2019-03-28T19:31:28.567Z,101634.91
2019-03-28T19:36:34.059Z,101638.19
2019-03-28T19:41:38.817Z,101630.37
2019-03-28T19:46:43.667Z,101627.89
2019-03-28T19:51:48.625Z,101631.66
2019-03-28T19:56:53.349Z,101635.69
2019-03-28T20:01:58.446Z,101625.11
2019-03-28T20:07:03.268Z,101629.27
2019-03-28T20:12:08.247Z,101628.88
2019-03-28T20:17:13.229Z,101635.77
2019-03-28T20:22:17.866Z,101638.48
2019-03-28T20:27:23.065Z,101632.66
2019-03-28T20:32:28.997Z,101630.55
2019-03-28T20:37:33.807Z,101623.11
2019-03-28T20:42:38.506Z,101616.87
2019-03-28T20:47:43.467Z,101614.95
2019-03-28T20:52:48.427Z,101614.71
2019-03-28T20:57:53.148Z,101616.99
2019-03-28T21:02:57.747Z,101616.87
2019-03-28T21:08:03.529Z,101622.18
2019-03-28T21:13:09.684Z,101620.86
2019-03-28T21:18:15.000Z,101612.86
2019-03-28T21:23:19.784Z,101621.35
2019-03-28T21:28:25.200Z,101614.27
2019-03-28T21:33:30.162Z,101597.42
2019-03-28T21:38:35.005Z,101601.25
2019-03-28T21:43:40.246Z,101595.53
2019-03-28T21:48:45.140Z,101598.45
2019-03-28T21:53:49.867Z,101602.03
2019-03-28T21:58:54.786Z,101557.45
2019-03-28T22:03:59.690Z,101584.77
2019-03-28T22:09:05.967Z,101584.02
2019-03-28T22:14:10.967Z,101584.62
2019-03-28T22:19:18.168Z,101578.16
2019-03-28T22:24:22.847Z,101570.53
2019-03-28T22:29:27.590Z,101560.41
2019-03-28T22:34:34.072Z,101557.47
2019-03-28T22:39:39.468Z,101555.35
2019-03-28T22:44:44.507Z,101545.30
2019-03-28T22:49:49.606Z,101546.94
2019-03-28T22:54:54.389Z,101531.75
2019-03-28T22:59:59.070Z,101531.73
2019-03-28T23:05:04.907Z,101533.45
2019-03-28T23:10:09.999Z,101530.63
2019-03-28T23:15:14.785Z,101530.80
2019-03-28T23:20:19.657Z,101532.14
2019-03-28T23:25:24.356Z,101520.87
2019-03-28T23:30:29.261Z,101525.97
2019-03-28T23:35:33.835Z,101509.70
2019-03-28T23:40:38.473Z,101516.22
2019-03-28T23:45:43.561Z,101509.28
2019-03-28T23:50:48.311Z,101502.30
2019-03-28T23:55:52.952Z,101507.56
